Time;durP1;ratioP1;P1;durP2;ratioP2;P2;SDS_P1;SDS_P2;PMS_P1;PMS_P2;Temp;Humidity;BMP_temperature;BMP_pressure;BME280_temperature;BME280_humidity;BME280_pressure;Samples;Min_cycle;Max_cycle;Signal;HPM_P1;HPM_P2
2023/09/30 00:00:15;;;;;;;33.40;19.90;;;;;;;19.15;49.21;100719.20;107961;1253;72688;-66
2023/09/30 00:02:43;;;;;;;36.80;20.10;;;;;;;19.17;48.98;100716.74;108002;1260;61765;-67
2023/09/30 00:05:10;;;;;;;28.60;19.30;;;;;;;18.95;49.47;100712.58;108063;1252;60085;-64
2023/09/30 00:07:38;;;;;;;30.00;19.40;;;;;;;18.78;49.89;100715.25;108118;1253;71930;-67
2023/09/30 00:10:06;;;;;;;32.10;19.20;;;;;;;18.95;49.59;100712.58;108106;1253;70306;-66
2023/09/30 00:12:33;;;;;;;33.30;17.40;;;;;;;18.98;49.44;100710.77;108097;1252;72701;-66
2023/09/30 00:15:01;;;;;;;32.30;19.20;;;;;;;18.98;49.47;100711.71;108256;1252;62107;-66
2023/09/30 00:17:28;;;;;;;27.80;19.10;;;;;;;19.03;49.43;100710.82;108201;1252;59636;-67
2023/09/30 00:19:56;;;;;;;31.30;19.60;;;;;;;19.10;49.25;100709.87;108077;1253;73002;-66
2023/09/30 00:22:24;;;;;;;29.80;18.50;;;;;;;19.03;49.27;100707.29;108089;1253;70494;-66
2023/09/30 00:24:51;;;;;;;34.40;19.70;;;;;;;19.06;49.10;100704.27;108037;1252;71283;-67
2023/09/30 00:27:18;;;;;;;34.10;19.10;;;;;;;18.96;49.21;100703.84;108157;1252;60389;-65
2023/09/30 00:29:46;;;;;;;32.20;19.40;;;;;;;18.93;49.18;100703.11;108229;1253;59971;-67
2023/09/30 00:32:13;;;;;;;29.60;19.50;;;;;;;18.84;49.33;100703.11;108123;1254;71548;-65
2023/09/30 00:34:41;;;;;;;34.20;20.20;;;;;;;18.78;49.49;100699.23;108138;1254;70637;-65
2023/09/30 00:37:08;;;;;;;28.00;17.40;;;;;;;18.82;49.38;100699.49;108123;1256;72468;-65
2023/09/30 00:39:37;;;;;;;33.40;19.30;;;;;;;18.82;49.43;100700.97;108138;1254;61681;-66
2023/09/30 00:42:04;;;;;;;31.60;18.10;;;;;;;18.79;49.40;100702.91;108196;1253;59816;-67
2023/09/30 00:44:33;;;;;;;32.20;20.60;;;;;;;18.26;50.61;100699.72;108195;1253;72925;-66
2023/09/30 00:47:00;;;;;;;30.70;19.90;;;;;;;18.04;51.00;100698.86;108140;1254;69039;-66
2023/09/30 00:49:28;;;;;;;28.60;18.30;;;;;;;17.76;51.70;100695.69;108125;1254;72684;-66
2023/09/30 00:51:56;;;;;;;31.70;19.60;;;;;;;17.55;52.31;100699.75;108197;1254;61839;-65
2023/09/30 00:54:24;;;;;;;31.60;19.70;;;;;;;17.69;52.08;100699.13;107955;1252;60488;-66
2023/09/30 00:56:53;;;;;;;33.70;19.90;;;;;;;17.96;51.43;100699.73;108062;1253;73572;-66
2023/09/30 00:59:20;;;;;;;35.30;19.60;;;;;;;17.98;51.40;100703.19;108112;1252;70445;-66
2023/09/30 01:01:48;;;;;;;31.40;20.50;;;;;;;17.94;51.29;100697.16;108143;1259;71455;-66
2023/09/30 01:04:15;;;;;;;32.30;19.90;;;;;;;18.07;51.20;100694.29;108139;1254;61633;-66
2023/09/30 01:06:43;;;;;;;34.60;21.50;;;;;;;18.05;51.16;100693.34;108168;1254;59710;-66
2023/09/30 01:09:12;;;;;;;33.60;20.00;;;;;;;18.17;51.22;100694.36;108036;1253;73978;-65
2023/09/30 01:11:44;;;;;;;36.30;20.30;;;;;;;18.00;51.41;100692.91;108078;1253;70439;-67
2023/09/30 01:14:44;;;;;;;33.40;20.60;;;;;;;17.93;51.57;100690.67;108223;1253;72711;-66
2023/09/30 01:17:13;;;;;;;32.60;19.20;;;;;;;18.06;51.33;100689.92;107805;1254;61680;-66
2023/09/30 01:19:42;;;;;;;32.40;19.70;;;;;;;18.06;51.38;100690.81;108107;1254;59264;-66
2023/09/30 01:22:10;;;;;;;30.00;20.30;;;;;;;17.94;51.59;100686.70;108237;1251;70731;-66
2023/09/30 01:24:40;;;;;;;31.40;20.30;;;;;;;17.76;51.99;100688.41;108150;1254;68868;-66
2023/09/30 01:27:08;;;;;;;32.20;19.90;;;;;;;17.58;52.27;100688.91;108078;1254;72643;-66
2023/09/30 01:29:38;;;;;;;29.10;19.20;;;;;;;17.56;52.34;100687.27;108221;1253;61740;-66
2023/09/30 01:32:09;;;;;;;34.00;20.70;;;;;;;17.48;52.44;100685.60;108105;1251;62147;-65
2023/09/30 01:34:37;;;;;;;;;;;;;;;17.38;52.71;100683.48;108107;1253;71332;-65
2023/09/30 01:37:04;;;;;;;32.40;19.90;;;;;;;17.61;52.14;100679.34;108127;1257;69548;-67
2023/09/30 01:39:33;;;;;;;35.40;20.80;;;;;;;17.82;51.55;100680.26;108142;1253;72725;-66
2023/09/30 01:42:01;;;;;;;34.00;20.50;;;;;;;17.87;51.34;100678.23;108043;1254;60710;-66
2023/09/30 01:44:29;;;;;;;27.20;17.60;;;;;;;17.79;51.73;100679.91;108158;1254;60051;-65
2023/09/30 01:46:56;;;;;;;43.70;21.00;;;;;;;17.80;51.64;100678.77;108052;1254;72951;-66
2023/09/30 01:49:25;;;;;;;35.00;20.80;;;;;;;17.86;51.54;100678.30;108184;1253;68721;-67
2023/09/30 01:51:55;;;;;;;44.10;23.90;;;;;;;17.97;51.31;100675.13;108164;1254;70668;-67
2023/09/30 01:54:22;;;;;;;40.40;24.00;;;;;;;18.02;51.25;100678.95;108105;1254;61886;-67
2023/09/30 01:56:49;;;;;;;34.10;20.60;;;;;;;18.09;51.19;100677.09;108111;1254;60025;-65
2023/09/30 01:59:17;;;;;;;36.80;22.20;;;;;;;18.17;50.97;100674.11;107995;1253;72354;-66
2023/09/30 02:01:48;;;;;;;37.70;19.80;;;;;;;18.25;50.61;100676.52;108037;1253;68712;-66
2023/09/30 02:04:17;;;;;;;41.00;20.20;;;;;;;18.26;50.63;100673.27;108116;1254;72586;-66
2023/09/30 02:06:44;;;;;;;36.80;20.80;;;;;;;18.15;50.79;100673.35;108062;1252;61653;-66
2023/09/30 02:09:12;;;;;;;34.70;20.10;;;;;;;18.09;50.92;100673.21;108157;1253;59375;-64
2023/09/30 02:11:41;;;;;;;37.80;21.40;;;;;;;18.08;50.99;100673.79;108141;1254;73154;-66
2023/09/30 02:14:11;;;;;;;35.90;21.50;;;;;;;18.17;50.67;100671.10;108076;1254;69129;-65
2023/09/30 02:16:39;;;;;;;32.40;19.80;;;;;;;18.16;50.49;100672.57;108080;1253;72465;-65
2023/09/30 02:19:09;;;;;;;30.60;20.00;;;;;;;18.11;50.56;100675.40;108113;1254;61602;-65
2023/09/30 02:21:38;;;;;;;29.10;20.10;;;;;;;18.10;50.48;100669.89;108112;1254;60328;-64
2023/09/30 02:24:07;;;;;;;40.60;22.00;;;;;;;17.97;50.80;100667.66;108120;1254;71865;-64
2023/09/30 02:26:35;;;;;;;31.60;20.40;;;;;;;17.93;51.00;100669.37;108092;1258;69965;-66
2023/09/30 02:29:02;;;;;;;35.20;18.40;;;;;;;17.96;51.03;100664.18;108069;1258;72887;-66
2023/09/30 02:31:29;;;;;;;31.80;20.40;;;;;;;17.80;51.29;100663.14;108107;1253;61648;-65
2023/09/30 02:33:57;;;;;;;32.30;20.40;;;;;;;17.85;51.29;100663.59;108049;1253;60306;-66
2023/09/30 02:36:27;;;;;;;30.40;19.00;;;;;;;17.86;51.13;100662.48;108084;1253;72554;-65
2023/09/30 02:38:54;;;;;;;33.20;21.30;;;;;;;17.86;51.25;100660.37;108056;1254;70308;-66
2023/09/30 02:41:22;;;;;;;35.80;20.90;;;;;;;17.81;51.34;100659.57;108072;1254;72638;-65
2023/09/30 02:43:49;;;;;;;35.00;21.70;;;;;;;17.77;51.36;100661.34;108110;1251;60572;-66
2023/09/30 02:46:17;;;;;;;35.90;21.70;;;;;;;17.78;51.27;100659.70;108105;1253;60418;-66
2023/09/30 02:48:46;;;;;;;31.40;20.40;;;;;;;17.76;51.24;100661.76;108151;1254;73372;-65
2023/09/30 02:51:14;;;;;;;36.60;21.50;;;;;;;17.38;52.21;100666.66;108168;1254;70315;-65
2023/09/30 02:53:42;;;;;;;41.40;22.00;;;;;;;17.31;52.37;100661.69;108101;1254;72502;-65
2023/09/30 02:56:09;;;;;;;41.20;21.80;;;;;;;17.34;52.29;100659.41;108061;1254;61775;-67
2023/09/30 02:58:40;;;;;;;36.80;21.30;;;;;;;17.35;52.19;100656.34;108186;1254;60052;-66
2023/09/30 03:01:09;;;;;;;30.00;18.70;;;;;;;17.25;52.56;100655.48;108113;1254;72883;-66
2023/09/30 03:03:39;;;;;;;37.90;21.60;;;;;;;17.23;52.69;100653.25;108162;1254;70280;-65
2023/09/30 03:06:07;;;;;;;38.90;21.60;;;;;;;17.28;52.59;100655.85;107952;1254;71532;-66
2023/09/30 03:08:35;;;;;;;30.10;19.10;;;;;;;17.23;52.52;100656.10;108086;1252;60476;-66
2023/09/30 03:11:03;;;;;;;40.10;22.70;;;;;;;17.17;52.64;100652.40;108143;1253;60036;-65
2023/09/30 03:13:31;;;;;;;34.40;20.40;;;;;;;17.17;52.63;100651.67;108143;1258;73825;-66
2023/09/30 03:15:58;;;;;;;35.00;21.60;;;;;;;17.23;52.56;100649.39;108208;1253;68751;-65
2023/09/30 03:18:26;;;;;;;38.40;22.80;;;;;;;17.17;52.70;100648.49;108150;1254;71450;-66
2023/09/30 03:21:00;;;;;;;28.70;18.60;;;;;;;17.14;52.91;100646.70;108168;1254;63773;-66
2023/09/30 03:23:30;;;;;;;40.20;22.60;;;;;;;17.15;52.86;100642.77;108319;1251;60287;-66
2023/09/30 03:25:58;;;;;;;30.40;20.10;;;;;;;17.11;52.90;100640.28;108274;1251;73876;-66
2023/09/30 03:28:29;;;;;;;35.80;21.00;;;;;;;17.12;52.81;100640.45;108397;1256;69605;-66
2023/09/30 03:30:57;;;;;;;35.70;21.90;;;;;;;17.00;52.97;100640.58;108178;1255;70827;-65
2023/09/30 03:33:26;;;;;;;38.00;22.30;;;;;;;16.73;53.66;100643.42;108165;1253;61857;-65
2023/09/30 03:35:54;;;;;;;39.30;22.60;;;;;;;16.73;53.55;100642.90;108212;1252;60364;-66
2023/09/30 03:38:22;;;;;;;43.40;22.00;;;;;;;16.80;53.10;100639.33;108220;1251;72643;-65
2023/09/30 03:40:50;;;;;;;38.40;22.70;;;;;;;16.89;52.92;100641.16;108203;1251;69378;-65
2023/09/30 03:43:17;;;;;;;38.80;22.50;;;;;;;16.85;52.88;100641.92;108209;1252;70480;-66
2023/09/30 03:45:45;;;;;;;29.00;20.60;;;;;;;16.87;52.80;100644.62;108217;1253;60861;-66
2023/09/30 03:48:13;;;;;;;37.30;22.40;;;;;;;16.85;52.85;100640.51;108217;1253;60418;-66
2023/09/30 03:50:40;;;;;;;40.70;23.60;;;;;;;16.87;52.80;100637.90;108316;1253;73845;-66
2023/09/30 03:53:08;;;;;;;30.30;19.30;;;;;;;17.01;52.63;100639.06;108287;1256;69946;-67
2023/09/30 03:55:36;;;;;;;38.40;22.20;;;;;;;17.07;52.69;100640.20;108177;1257;72652;-66
2023/09/30 03:58:04;;;;;;;33.00;21.30;;;;;;;17.19;52.41;100640.20;108178;1252;60491;-65
2023/09/30 04:00:32;;;;;;;28.70;18.30;;;;;;;17.19;52.59;100638.23;108216;1251;61029;-66
2023/09/30 04:03:00;;;;;;;42.20;24.90;;;;;;;17.16;52.72;100641.80;108243;1253;73855;-67
2023/09/30 04:05:33;;;;;;;33.20;21.20;;;;;;;17.26;52.52;100641.21;108241;1251;70796;-66
2023/09/30 04:08:01;;;;;;;34.90;23.30;;;;;;;17.27;52.60;100639.59;108180;1251;72607;-67
2023/09/30 04:10:31;;;;;;;43.40;22.80;;;;;;;17.31;52.46;100638.06;108211;1253;60828;-66
2023/09/30 04:12:59;;;;;;;35.40;21.40;;;;;;;17.33;52.24;100641.69;108209;1251;60326;-66
2023/09/30 04:15:26;;;;;;;36.40;22.80;;;;;;;17.31;52.26;100642.70;108221;1251;72736;-65
2023/09/30 04:17:54;;;;;;;45.10;22.50;;;;;;;17.31;52.50;100644.81;108250;1256;69979;-66
2023/09/30 04:20:23;;;;;;;40.20;22.70;;;;;;;17.36;52.49;100639.38;108186;1253;71212;-66
2023/09/30 04:22:51;;;;;;;39.30;22.70;;;;;;;17.38;52.43;100636.43;108170;1254;60767;-65
2023/09/30 04:25:18;;;;;;;29.90;19.00;;;;;;;17.40;52.61;100635.12;108212;1251;60323;-65
2023/09/30 04:27:47;;;;;;;35.60;21.70;;;;;;;17.50;52.56;100636.15;108158;1255;74384;-66
2023/09/30 04:30:17;;;;;;;37.90;22.30;;;;;;;17.66;52.35;100640.85;108122;1255;69346;-66
2023/09/30 04:32:45;;;;;;;30.90;20.40;;;;;;;17.88;52.08;100637.16;108027;1253;71379;-66
2023/09/30 04:35:12;;;;;;;37.40;22.30;;;;;;;17.92;51.93;100633.88;108145;1253;61626;-65
2023/09/30 04:37:40;;;;;;;36.70;22.50;;;;;;;17.97;51.79;100632.86;108153;1253;60326;-66
2023/09/30 04:40:21;;;;;;;33.30;21.50;;;;;;;17.99;51.85;100631.12;108206;1253;74408;-66
2023/09/30 04:42:49;;;;;;;42.90;22.90;;;;;;;17.97;51.89;100629.32;108179;1258;70104;-65
2023/09/30 04:45:19;;;;;;;39.00;20.30;;;;;;;18.04;51.80;100628.20;108075;1258;70631;-66
2023/09/30 04:47:50;;;;;;;38.70;22.70;;;;;;;18.13;51.75;100625.53;107981;1260;60422;-64
2023/09/30 04:50:21;;;;;;;36.80;21.80;;;;;;;18.15;51.76;100628.24;108212;1253;60388;-65
2023/09/30 04:52:51;;;;;;;42.60;22.80;;;;;;;18.32;51.82;100629.30;108097;1253;73812;-66
2023/09/30 04:55:19;;;;;;;34.40;21.20;;;;;;;18.81;52.09;100630.73;108073;1253;69014;-65
2023/09/30 04:57:47;;;;;;;34.60;21.30;;;;;;;19.28;51.55;100631.98;108091;1254;72605;-66
2023/09/30 05:00:21;;;;;;;32.60;20.20;;;;;;;19.85;50.61;100627.92;108171;1253;61747;-66
2023/09/30 05:02:49;;;;;;;34.70;20.20;;;;;;;20.50;49.35;100623.37;107809;1252;60476;-67
2023/09/30 05:05:16;;;;;;;33.10;19.00;;;;;;;21.06;47.64;100622.98;108120;1254;73878;-66
2023/09/30 05:07:46;;;;;;;32.60;18.90;;;;;;;21.54;46.98;100626.80;108122;1257;70332;-67
2023/09/30 05:10:16;;;;;;;29.60;18.10;;;;;;;22.18;46.24;100624.25;108178;1254;72649;-67
2023/09/30 05:12:47;;;;;;;28.00;17.50;;;;;;;22.71;45.26;100620.61;108103;1256;61650;-66
2023/09/30 05:15:15;;;;;;;25.90;17.10;;;;;;;23.36;43.81;100625.20;108264;1253;60438;-66
2023/09/30 05:17:44;;;;;;;25.50;16.20;;;;;;;23.94;42.58;100621.05;108210;1252;73753;-67
2023/09/30 05:20:12;;;;;;;25.60;15.30;;;;;;;24.49;41.46;100615.23;108298;1257;70308;-67
2023/09/30 05:22:45;;;;;;;26.20;15.70;;;;;;;25.03;40.42;100615.31;108142;1253;70896;-67
2023/09/30 05:25:16;;;;;;;22.10;15.90;;;;;;;25.55;39.40;100616.91;108239;1253;62570;-66
2023/09/30 05:27:44;;;;;;;26.10;16.80;;;;;;;26.04;38.39;100616.68;108322;1254;60541;-67
2023/09/30 05:30:14;;;;;;;22.90;15.20;;;;;;;26.40;37.71;100613.98;108271;1251;73766;-67
2023/09/30 05:32:41;;;;;;;26.70;16.80;;;;;;;26.73;36.89;100614.61;108267;1251;69461;-66
2023/09/30 05:35:12;;;;;;;29.30;16.60;;;;;;;27.24;36.15;100612.67;108186;1251;72799;-67
2023/09/30 05:37:41;;;;;;;28.40;16.00;;;;;;;27.63;35.73;100613.64;108300;1253;60414;-68
2023/09/30 05:40:20;;;;;;;25.50;16.20;;;;;;;28.06;34.98;100612.09;108227;1256;60280;-68
2023/09/30 05:42:49;;;;;;;28.40;16.60;;;;;;;28.37;34.52;100608.89;108123;1251;73964;-68
2023/09/30 05:45:17;;;;;;;22.70;15.50;;;;;;;28.88;33.86;100608.09;108257;1251;69053;-68
2023/09/30 05:47:45;;;;;;;29.60;16.90;;;;;;;29.37;33.16;100607.80;108107;1256;72439;-68
2023/09/30 05:50:16;;;;;;;24.10;15.70;;;;;;;29.85;32.47;100607.16;108184;1251;60303;-68
2023/09/30 05:52:45;;;;;;;24.80;16.20;;;;;;;30.16;31.82;100605.09;108181;1256;61454;-68
2023/09/30 05:55:13;;;;;;;21.90;15.50;;;;;;;30.56;31.23;100601.91;108167;1251;75350;-68
2023/09/30 05:57:42;;;;;;;22.60;14.80;;;;;;;30.84;30.85;100600.17;108163;1257;70488;-68
2023/09/30 06:00:14;;;;;;;25.40;15.80;;;;;;;31.17;30.31;100603.77;108055;1256;71453;-68
2023/09/30 06:02:42;;;;;;;27.20;16.80;;;;;;;31.56;30.06;100607.16;108328;1251;60313;-67
2023/09/30 06:05:11;;;;;;;22.70;15.00;;;;;;;32.07;29.42;100605.73;108237;1257;60280;-68
2023/09/30 06:07:38;;;;;;;28.50;17.40;;;;;;;32.57;28.85;100605.23;108232;1256;72690;-68
2023/09/30 06:10:06;;;;;;;26.60;16.10;;;;;;;33.06;27.94;100604.98;108215;1254;70283;-68
2023/09/30 06:12:33;;;;;;;31.20;15.70;;;;;;;33.29;27.24;100604.61;108159;1254;72656;-69
2023/09/30 06:15:02;;;;;;;24.80;15.90;;;;;;;33.49;26.36;100603.52;108173;1253;60467;-68
2023/09/30 06:17:33;;;;;;;29.40;15.50;;;;;;;33.83;25.87;100602.84;108169;1252;60277;-69
2023/09/30 06:20:08;;;;;;;40.70;16.90;;;;;;;34.16;25.36;100599.40;108262;1253;63833;-69
2023/09/30 06:22:35;;;;;;;28.30;15.20;;;;;;;34.48;24.68;100597.40;108073;1255;61476;-69
2023/09/30 06:25:04;;;;;;;31.20;14.60;;;;;;;34.77;23.88;100602.87;108154;1255;65142;-67
2023/09/30 06:27:31;;;;;;;23.90;14.80;;;;;;;34.94;23.90;100602.64;108221;1254;60293;-67
2023/09/30 06:30:00;;;;;;;27.70;14.10;;;;;;;35.13;23.48;100604.27;108149;1257;60254;-68
2023/09/30 06:32:28;;;;;;;25.90;15.30;;;;;;;35.23;23.04;100601.27;108180;1254;64949;-67
2023/09/30 06:34:55;;;;;;;24.60;14.10;;;;;;;35.22;22.82;100601.98;108127;1253;62397;-67
2023/09/30 06:37:23;;;;;;;29.30;15.60;;;;;;;35.35;22.96;100603.45;108093;1254;63543;-67
2023/09/30 06:39:50;;;;;;;23.70;14.40;;;;;;;35.35;22.59;100601.55;108051;1254;60385;-68
2023/09/30 06:42:18;;;;;;;27.50;15.10;;;;;;;35.28;22.57;100605.25;108109;1254;59260;-69
2023/09/30 06:44:46;;;;;;;25.00;14.90;;;;;;;35.24;22.64;100602.66;108128;1253;74154;-68
2023/09/30 06:47:14;;;;;;;29.20;15.00;;;;;;;35.52;22.54;100602.47;107985;1254;61408;-68
2023/09/30 06:49:41;;;;;;;21.50;14.00;;;;;;;35.77;22.33;100601.78;107987;1253;62625;-68
2023/09/30 06:52:09;;;;;;;32.80;16.00;;;;;;;36.18;21.67;100602.70;108083;1254;60749;-68
2023/09/30 06:54:36;;;;;;;22.60;13.50;;;;;;;36.26;21.84;100599.81;108095;1254;60374;-68
2023/09/30 06:57:04;;;;;;;26.60;15.10;;;;;;;36.29;21.60;100596.85;108060;1254;63942;-67
2023/09/30 06:59:34;;;;;;;25.80;15.30;;;;;;;36.34;21.55;100594.09;108056;1254;61337;-68
2023/09/30 07:02:02;;;;;;;21.50;12.90;;;;;;;36.03;21.89;100596.11;108092;1254;63781;-68
2023/09/30 07:04:30;;;;;;;27.50;14.50;;;;;;;36.36;21.68;100595.05;108137;1254;59783;-67
2023/09/30 07:06:58;;;;;;;25.20;15.00;;;;;;;36.77;21.24;100595.74;108111;1253;60313;-68
2023/09/30 07:09:26;;;;;;;22.60;14.10;;;;;;;37.21;20.86;100593.93;108111;1254;65298;-68
2023/09/30 07:11:54;;;;;;;24.60;14.10;;;;;;;37.31;20.74;100592.39;108074;1254;60126;-66
2023/09/30 07:14:21;;;;;;;25.50;14.50;;;;;;;37.40;20.77;100594.06;108093;1255;63842;-67
2023/09/30 07:16:48;;;;;;;30.00;14.90;;;;;;;37.88;20.28;100590.61;108107;1253;60391;-68
2023/09/30 07:19:16;;;;;;;31.00;16.10;;;;;;;38.37;19.87;100590.39;108216;1254;60271;-68
2023/09/30 07:21:43;;;;;;;22.30;15.60;;;;;;;38.79;19.62;100589.94;108196;1253;64046;-68
2023/09/30 07:24:14;;;;;;;;;;;;;;;39.00;19.08;100594.33;108104;1254;70498;-68
2023/09/30 07:26:42;;;;;;;25.20;14.90;;;;;;;39.00;19.27;100594.68;108030;1254;63870;-68
2023/09/30 07:29:09;;;;;;;30.10;16.80;;;;;;;39.37;19.07;100597.02;107977;1255;60503;-69
2023/09/30 07:31:37;;;;;;;26.20;17.20;;;;;;;39.58;18.58;100596.84;107981;1254;60307;-68
2023/09/30 07:34:05;;;;;;;32.00;16.90;;;;;;;39.71;18.61;100597.43;108004;1254;65022;-67
2023/09/30 07:36:32;;;;;;;26.30;14.60;;;;;;;39.90;18.52;100596.54;108019;1260;60799;-67
2023/09/30 07:39:01;;;;;;;22.10;14.20;;;;;;;39.91;18.49;100596.98;108017;1254;62449;-68
2023/09/30 07:41:34;;;;;;;24.50;13.20;;;;;;;39.92;18.32;100594.86;108003;1258;60395;-67
2023/09/30 07:44:01;;;;;;;20.50;12.10;;;;;;;40.19;17.91;100592.77;107992;1254;61204;-68
2023/09/30 07:46:28;;;;;;;21.60;11.60;;;;;;;40.32;17.86;100587.73;108039;1254;72326;-68
2023/09/30 07:48:58;;;;;;;22.20;11.80;;;;;;;40.37;17.39;100587.84;108070;1259;60769;-68
2023/09/30 07:51:27;;;;;;;23.30;11.40;;;;;;;40.27;17.39;100585.64;108129;1257;62903;-68
2023/09/30 07:53:54;;;;;;;17.10;9.10;;;;;;;40.46;17.20;100583.35;108058;1254;60429;-69
2023/09/30 07:56:21;;;;;;;16.20;8.40;;;;;;;40.47;16.88;100579.67;108035;1254;60250;-68
2023/09/30 07:58:49;;;;;;;15.00;8.20;;;;;;;40.44;16.87;100579.28;108048;1254;64959;-68
2023/09/30 08:01:17;;;;;;;12.60;8.00;;;;;;;40.53;16.53;100577.15;108056;1254;61466;-68
2023/09/30 08:03:46;;;;;;;21.20;8.20;;;;;;;40.83;16.70;100570.05;108037;1254;65323;-70
2023/09/30 08:06:13;;;;;;;15.80;7.40;;;;;;;40.52;16.84;100573.72;108064;1254;59271;-68
2023/09/30 08:08:41;;;;;;;11.50;6.80;;;;;;;40.52;16.42;100572.61;108058;1254;60321;-69
2023/09/30 08:11:08;;;;;;;19.90;7.40;;;;;;;40.63;16.24;100569.70;107875;1253;64221;-68
2023/09/30 08:13:36;;;;;;;12.70;6.90;;;;;;;40.70;16.09;100569.29;108002;1255;60626;-68
2023/09/30 08:16:03;;;;;;;20.70;6.90;;;;;;;40.83;15.74;100567.14;107980;1255;63720;-68
2023/09/30 08:18:32;;;;;;;14.40;7.40;;;;;;;40.82;15.92;100567.33;108016;1254;60426;-67
2023/09/30 08:20:59;;;;;;;15.20;6.80;;;;;;;40.79;16.09;100565.95;108022;1254;60307;-69
2023/09/30 08:23:27;;;;;;;10.90;6.20;;;;;;;40.60;15.66;100567.42;108043;1253;65208;-68
2023/09/30 08:25:58;;;;;;;14.70;6.40;;;;;;;40.16;15.85;100570.60;108044;1254;60116;-69
2023/09/30 08:28:25;;;;;;;13.80;6.10;;;;;;;40.12;15.73;100572.10;108129;1254;62487;-68
2023/09/30 08:30:58;;;;;;;12.00;6.90;;;;;;;39.99;15.86;100575.88;108143;1253;60532;-68
2023/09/30 08:33:27;;;;;;;12.30;6.70;;;;;;;39.98;16.01;100568.05;108149;1254;60023;-69
2023/09/30 08:35:55;;;;;;;17.90;6.90;;;;;;;40.03;15.60;100566.98;108099;1253;64904;-69
2023/09/30 08:38:22;;;;;;;14.70;6.20;;;;;;;39.93;15.96;100572.83;108109;1257;61419;-68
2023/09/30 08:40:51;;;;;;;11.20;6.30;;;;;;;40.16;15.89;100568.55;108133;1253;62810;-67
2023/09/30 08:43:19;;;;;;;10.40;6.90;;;;;;;40.84;15.58;100561.45;108097;1254;59528;-68
2023/09/30 08:45:47;;;;;;;15.10;6.80;;;;;;;41.17;15.50;100558.60;108143;1254;62097;-68
2023/09/30 08:48:18;;;;;;;10.20;5.80;;;;;;;41.12;14.96;100554.30;107989;1254;65283;-69
2023/09/30 08:50:46;;;;;;;8.90;5.60;;;;;;;40.81;14.94;100554.20;108179;1254;61364;-68
2023/09/30 08:53:13;;;;;;;11.50;5.30;;;;;;;40.82;14.95;100549.27;108086;1255;63703;-69
2023/09/30 08:55:40;;;;;;;11.60;5.60;;;;;;;41.01;14.39;100547.30;108111;1254;60418;-68
2023/09/30 08:58:08;;;;;;;13.90;5.50;;;;;;;40.85;14.46;100546.45;108084;1254;60415;-68
2023/09/30 09:00:35;;;;;;;9.10;4.80;;;;;;;40.58;14.58;100547.55;108071;1254;64341;-68
2023/09/30 09:03:03;;;;;;;11.60;5.00;;;;;;;40.83;14.60;100545.08;108117;1254;61985;-69
2023/09/30 09:05:31;;;;;;;11.00;5.00;;;;;;;40.91;14.44;100544.02;108046;1256;63767;-67
2023/09/30 09:07:58;;;;;;;12.50;4.60;;;;;;;41.13;14.39;100543.48;108119;1254;59560;-68
2023/09/30 09:10:26;;;;;;;8.90;4.60;;;;;;;41.00;14.03;100546.23;108121;1254;60309;-69
2023/09/30 09:12:57;;;;;;;6.60;4.50;;;;;;;40.86;14.02;100545.07;108122;1254;63635;-69
2023/09/30 09:15:26;;;;;;;7.70;4.50;;;;;;;40.73;14.18;100540.86;108175;1253;61417;-68
2023/09/30 09:17:54;;;;;;;15.00;4.80;;;;;;;40.48;14.18;100541.16;108105;1256;66102;-68
2023/09/30 09:20:24;;;;;;;8.70;4.80;;;;;;;40.28;14.21;100543.34;108142;1254;60566;-68
2023/09/30 09:22:54;;;;;;;13.90;4.60;;;;;;;40.27;14.39;100541.63;108187;1253;60286;-67
2023/09/30 09:25:24;;;;;;;10.80;4.90;;;;;;;40.08;14.80;100542.45;108119;1254;67103;-68
2023/09/30 09:27:53;;;;;;;11.00;5.00;;;;;;;40.24;14.72;100536.45;108100;1253;61498;-64
2023/09/30 09:30:25;;;;;;;12.30;4.80;;;;;;;40.22;14.43;100533.77;108123;1257;62524;-69
2023/09/30 09:33:04;;;;;;;9.60;5.40;;;;;;;40.19;14.59;100530.73;108096;1254;60425;-69
2023/09/30 09:35:34;;;;;;;6.10;4.70;;;;;;;40.34;14.69;100528.11;108096;1254;60524;-69
2023/09/30 09:38:03;;;;;;;15.30;4.90;;;;;;;40.55;14.46;100528.79;108158;1253;63702;-68
2023/09/30 09:40:32;;;;;;;14.80;5.30;;;;;;;40.66;14.27;100530.61;108058;1253;61345;-69
2023/09/30 09:43:02;;;;;;;16.80;5.60;;;;;;;40.79;14.41;100526.77;108038;1254;62434;-68
2023/09/30 09:45:32;;;;;;;11.40;4.70;;;;;;;41.11;13.84;100528.53;108098;1254;60291;-68
2023/09/30 09:48:00;;;;;;;;;;;;;;;40.93;13.94;100524.84;108121;1252;59068;-69
2023/09/30 09:50:27;;;;;;;15.00;5.40;;;;;;;40.43;14.12;100525.30;108167;1253;63626;-70
2023/09/30 09:52:55;;;;;;;13.50;5.60;;;;;;;40.13;14.20;100523.96;108180;1254;60571;-69
2023/09/30 09:55:23;;;;;;;9.50;5.50;;;;;;;39.71;14.63;100526.27;108156;1252;62698;-68
2023/09/30 09:57:51;;;;;;;9.40;5.30;;;;;;;39.60;14.46;100526.94;108104;1253;60215;-69
2023/09/30 10:00:19;;;;;;;15.30;8.10;;;;;;;39.77;14.47;100519.77;108149;1254;59686;-69
2023/09/30 10:02:47;;;;;;;10.50;6.30;;;;;;;39.76;14.40;100521.14;108225;1253;63684;-70
2023/09/30 10:05:15;;;;;;;10.10;5.50;;;;;;;39.41;14.54;100517.20;108139;1253;61395;-69
2023/09/30 10:07:45;;;;;;;9.70;6.20;;;;;;;39.27;14.81;100512.59;108227;1253;62459;-68
2023/09/30 10:10:15;;;;;;;13.80;6.70;;;;;;;39.69;14.54;100513.45;108139;1254;60329;-68
2023/09/30 10:12:42;;;;;;;12.70;6.40;;;;;;;39.51;14.47;100508.47;108160;1253;60422;-68
2023/09/30 10:15:25;;;;;;;10.20;6.20;;;;;;;39.06;14.73;100507.28;108200;1254;65270;-68
2023/09/30 10:18:12;;;;;;;12.60;5.90;;;;;;;38.92;15.11;100500.62;108186;1252;60325;-68
2023/09/30 10:20:44;;;;;;;9.20;6.10;;;;;;;39.16;15.10;100500.13;108280;1253;63323;-67
2023/09/30 10:26:08;;;;;;;13.70;6.60;;;;;;;38.07;16.16;100491.55;104802;1292;600422;-67
2023/09/30 10:28:41;;;;;;;13.50;6.70;;;;;;;39.34;15.10;100490.02;107184;1266;59322;-68
2023/09/30 10:31:16;;;;;;;14.20;5.90;;;;;;;39.49;15.14;100485.89;107277;1266;59845;-67
2023/09/30 10:33:59;;;;;;;11.40;6.30;;;;;;;39.55;14.97;100483.23;107194;1266;72724;-68
2023/09/30 10:36:32;;;;;;;26.80;7.80;;;;;;;40.07;14.72;100475.84;107199;1267;61732;-70
2023/09/30 10:39:00;;;;;;;15.90;6.60;;;;;;;40.43;14.50;100475.29;107091;1270;205734;-68
2023/09/30 10:41:50;;;;;;;9.70;5.80;;;;;;;39.96;14.40;100478.77;107296;1264;59020;-69
2023/09/30 10:44:27;;;;;;;11.90;5.90;;;;;;;40.09;14.48;100473.02;107334;1267;59267;-69
2023/09/30 10:46:58;;;;;;;17.50;7.00;;;;;;;39.99;14.67;100470.83;107349;1266;63328;-68
2023/09/30 10:49:26;;;;;;;13.60;7.00;;;;;;;39.72;15.11;100470.23;107375;1264;61411;-68
2023/09/30 10:51:57;;;;;;;15.20;7.60;;;;;;;39.73;15.03;100469.58;107319;1266;63845;-69
2023/09/30 10:54:26;;;;;;;19.80;7.30;;;;;;;39.85;15.22;100472.38;107342;1266;59641;-69
2023/09/30 10:56:54;;;;;;;11.70;6.40;;;;;;;39.52;15.31;100467.91;107407;1267;59523;-68
2023/09/30 10:59:22;;;;;;;13.40;7.40;;;;;;;39.16;15.40;100468.23;107322;1264;62869;-68
2023/09/30 11:01:50;;;;;;;12.00;7.00;;;;;;;38.95;15.42;100463.30;107355;1266;61870;-69
2023/09/30 11:04:19;;;;;;;13.40;7.40;;;;;;;39.09;15.54;100461.73;107313;1266;63689;-69
2023/09/30 11:06:47;;;;;;;16.90;7.40;;;;;;;38.96;15.57;100454.64;107262;1264;59590;-68
2023/09/30 11:09:19;;;;;;;11.10;6.70;;;;;;;38.89;15.61;100450.55;107341;1266;59123;-69
2023/09/30 11:11:51;;;;;;;14.30;7.10;;;;;;;38.77;15.89;100446.59;107378;1264;64412;-69
2023/09/30 11:14:26;;;;;;;10.00;6.30;;;;;;;38.94;15.77;100445.11;107773;1257;61401;-69